Track вилкин александр

Time Latitude Longitude Accuracy (66% radius in meters) Altitude (meters) Speed (km/hour) Bearing (degrees) Battery (%) GPS flag
06:42:25 57.203877 60.118295 0 0 0 0 1 delete
06:42:24 57.203877 60.118294 0 0 0 0 1 delete
06:42:23 57.203879 60.118291 0 0 0 0 1 delete
06:42:22 57.203879 60.118287 0 0 0 0 1 delete
06:42:21 57.203879 60.118284 0 0 0 0 1 delete
06:42:20 57.203879 60.118281 0 0 0 0 1 delete
06:42:19 57.203879 60.118280 0 0 0 0 1 delete
06:42:18 57.203880 60.118280 0 0 0 0 1 delete
06:42:17 57.203880 60.118279 0 0 0 0 1 delete
06:42:16 57.203880 60.118278 0 0 0 0 1 delete
06:42:15 57.203880 60.118277 0 0 0 0 1 delete
06:42:14 57.203880 60.118276 0 0 0 0 1 delete
06:42:13 57.203880 60.118275 0 0 0 0 1 delete
06:42:12 57.203879 60.118274 0 0 0 0 1 delete
06:42:11 57.203879 60.118274 0 0 0 0 1 delete
06:42:10 57.203879 60.118273 0 0 0 0 1 delete
06:42:09 57.203879 60.118272 0 0 0 0 1 delete
06:42:08 57.203879 60.118271 0 0 0 0 1 delete
06:42:07 57.203880 60.118271 0 0 0 0 1 delete
06:42:06 57.203880 60.118273 0 0 0 0 1 delete
06:42:05 57.203881 60.118272 0 0 0 0 1 delete
06:42:04 57.203882 60.118272 0 0 0 0 1 delete
06:42:03 57.203882 60.118270 0 0 0 0 1 delete
06:42:02 57.203883 60.118269 0 0 0 0 1 delete
06:42:01 57.203882 60.118270 0 0 0 0 1 delete
06:42:00 57.203882 60.118271 0 0 0 0 1 delete
06:41:59 57.203882 60.118272 0 0 0 0 1 delete
06:41:58 57.203882 60.118271 0 0 0 0 1 delete
06:41:57 57.203884 60.118271 0 0 0 0 1 delete
06:41:56 57.203886 60.118269 0 0 0 0 1 delete
06:41:55 57.203888 60.118269 0 0 0 0 1 delete
06:41:54 57.203890 60.118268 0 0 0 0 1 delete
06:41:53 57.203890 60.118268 0 0 0 0 1 delete
06:41:52 57.203890 60.118268 0 0 0 0 1 delete
06:41:51 57.203889 60.118270 0 0 0 0 1 delete
06:41:50 57.203889 60.118273 0 0 0 0 1 delete
06:41:49 57.203890 60.118275 0 0 0 0 1 delete
06:41:48 57.203892 60.118277 0 0 0 0 1 delete
06:41:47 57.203893 60.118277 0 0 0 0 1 delete
06:41:46 57.203894 60.118277 0 0 0 0 1 delete
06:41:45 57.203895 60.118277 0 0 0 0 1 delete
06:41:44 57.203894 60.118277 0 0 0 0 1 delete
06:41:43 57.203894 60.118275 0 0 0 0 1 delete
06:41:42 57.203893 60.118274 0 0 0 0 1 delete
06:41:41 57.203893 60.118274 0 0 0 0 1 delete
06:41:40 57.203891 60.118273 0 0 0 0 1 delete
06:41:39 57.203894 60.118274 0 0 0 0 1 delete
06:41:38 57.203899 60.118276 0 0 0 0 1 delete
06:41:37 57.203906 60.118277 0 0 0 0 1 delete
06:41:36 57.203912 60.118275 0 0 0 0 1 delete